sensor_id;sensor_type;location;lat;lon;timestamp;temperature;humidity
64833;HTU21D;51290;45.060;38.948;2023-07-20T00:02:01;20.77;81.61
64833;HTU21D;51290;45.060;38.948;2023-07-20T00:04:28;20.72;81.30
64833;HTU21D;51290;45.060;38.948;2023-07-20T00:06:54;20.63;81.29
64833;HTU21D;51290;45.060;38.948;2023-07-20T00:09:20;20.57;81.49
64833;HTU21D;51290;45.060;38.948;2023-07-20T00:11:51;20.51;81.75
64833;HTU21D;51290;45.060;38.948;2023-07-20T00:14:17;20.55;82.23
64833;HTU21D;51290;45.060;38.948;2023-07-20T00:16:45;20.60;82.52
64833;HTU21D;51290;45.060;38.948;2023-07-20T00:19:27;20.61;82.10
64833;HTU21D;51290;45.060;38.948;2023-07-20T00:21:54;20.58;82.01
64833;HTU21D;51290;45.060;38.948;2023-07-20T00:24:20;20.54;81.99
64833;HTU21D;51290;45.060;38.948;2023-07-20T00:26:46;20.55;82.36
64833;HTU21D;51290;45.060;38.948;2023-07-20T00:29:13;20.55;82.36
64833;HTU21D;51290;45.060;38.948;2023-07-20T00:31:40;20.55;82.26
64833;HTU21D;51290;45.060;38.948;2023-07-20T00:34:06;20.49;82.07
64833;HTU21D;51290;45.060;38.948;2023-07-20T00:36:33;20.43;82.13
64833;HTU21D;51290;45.060;38.948;2023-07-20T00:39:02;20.37;82.15
64833;HTU21D;51290;45.060;38.948;2023-07-20T00:41:28;20.32;82.35
64833;HTU21D;51290;45.060;38.948;2023-07-20T00:43:55;20.32;82.55
64833;HTU21D;51290;45.060;38.948;2023-07-20T00:46:25;20.29;82.40
64833;HTU21D;51290;45.060;38.948;2023-07-20T00:48:51;20.24;82.50
64833;HTU21D;51290;45.060;38.948;2023-07-20T00:51:19;20.21;82.43
64833;HTU21D;51290;45.060;38.948;2023-07-20T00:53:46;20.16;82.53
64833;HTU21D;51290;45.060;38.948;2023-07-20T00:56:12;20.16;82.86
64833;HTU21D;51290;45.060;38.948;2023-07-20T00:58:38;20.20;82.98
64833;HTU21D;51290;45.060;38.948;2023-07-20T01:01:04;20.20;82.97
64833;HTU21D;51290;45.060;38.948;2023-07-20T01:03:30;20.22;83.05
64833;HTU21D;51290;45.060;38.948;2023-07-20T01:08:47;20.19;83.14
64833;HTU21D;51290;45.060;38.948;2023-07-20T01:11:27;20.30;83.57
64833;HTU21D;51290;45.060;38.948;2023-07-20T01:13:55;20.44;83.68
64833;HTU21D;51290;45.060;38.948;2023-07-20T01:16:21;20.53;83.36
64833;HTU21D;51290;45.060;38.948;2023-07-20T01:18:47;20.53;82.94
64833;HTU21D;51290;45.060;38.948;2023-07-20T01:22:01;20.48;82.84
64833;HTU21D;51290;45.060;38.948;2023-07-20T01:27:20;20.31;82.71
64833;HTU21D;51290;45.060;38.948;2023-07-20T01:32:36;20.28;83.33
64833;HTU21D;51290;45.060;38.948;2023-07-20T01:35:05;20.22;83.27
64833;HTU21D;51290;45.060;38.948;2023-07-20T01:37:34;20.27;83.56
64833;HTU21D;51290;45.060;38.948;2023-07-20T01:40:00;20.29;83.59
64833;HTU21D;51290;45.060;38.948;2023-07-20T01:42:27;20.29;83.46
64833;HTU21D;51290;45.060;38.948;2023-07-20T01:44:53;20.22;83.36
64833;HTU21D;51290;45.060;38.948;2023-07-20T01:47:19;20.22;83.80
64833;HTU21D;51290;45.060;38.948;2023-07-20T01:49:45;20.25;83.67
64833;HTU21D;51290;45.060;38.948;2023-07-20T01:52:11;20.21;83.49
64833;HTU21D;51290;45.060;38.948;2023-07-20T01:54:37;20.21;83.64
64833;HTU21D;51290;45.060;38.948;2023-07-20T01:57:04;20.19;83.56
64833;HTU21D;51290;45.060;38.948;2023-07-20T01:59:30;20.18;83.65
64833;HTU21D;51290;45.060;38.948;2023-07-20T02:01:56;20.19;83.76
64833;HTU21D;51290;45.060;38.948;2023-07-20T02:04:22;20.19;83.76
64833;HTU21D;51290;45.060;38.948;2023-07-20T02:06:48;20.24;83.91
64833;HTU21D;51290;45.060;38.948;2023-07-20T02:09:14;20.29;84.07
64833;HTU21D;51290;45.060;38.948;2023-07-20T02:11:40;20.35;84.06
64833;HTU21D;51290;45.060;38.948;2023-07-20T02:14:06;20.40;83.81
64833;HTU21D;51290;45.060;38.948;2023-07-20T02:16:32;20.42;83.71
64833;HTU21D;51290;45.060;38.948;2023-07-20T02:18:58;20.45;83.71
64833;HTU21D;51290;45.060;38.948;2023-07-20T02:21:24;20.50;83.75
64833;HTU21D;51290;45.060;38.948;2023-07-20T02:23:50;20.51;83.58
64833;HTU21D;51290;45.060;38.948;2023-07-20T02:26:16;20.54;83.41
64833;HTU21D;51290;45.060;38.948;2023-07-20T02:28:42;20.55;83.23
64833;HTU21D;51290;45.060;38.948;2023-07-20T02:31:12;20.53;83.18
64833;HTU21D;51290;45.060;38.948;2023-07-20T02:33:38;20.59;83.55
64833;HTU21D;51290;45.060;38.948;2023-07-20T02:36:04;20.72;83.79
64833;HTU21D;51290;45.060;38.948;2023-07-20T02:38:30;20.90;83.87
64833;HTU21D;51290;45.060;38.948;2023-07-20T02:40:56;21.04;83.33
64833;HTU21D;51290;45.060;38.948;2023-07-20T02:43:22;21.17;82.94
64833;HTU21D;51290;45.060;38.948;2023-07-20T02:45:48;21.20;82.40
64833;HTU21D;51290;45.060;38.948;2023-07-20T02:48:15;21.19;82.06
64833;HTU21D;51290;45.060;38.948;2023-07-20T02:50:43;21.23;82.31
64833;HTU21D;51290;45.060;38.948;2023-07-20T02:53:09;21.39;82.73
64833;HTU21D;51290;45.060;38.948;2023-07-20T02:55:36;21.67;82.33
64833;HTU21D;51290;45.060;38.948;2023-07-20T02:58:02;21.99;82.00
64833;HTU21D;51290;45.060;38.948;2023-07-20T03:00:28;22.51;80.97
64833;HTU21D;51290;45.060;38.948;2023-07-20T03:02:54;23.24;79.47
64833;HTU21D;51290;45.060;38.948;2023-07-20T03:05:22;23.98;77.38
64833;HTU21D;51290;45.060;38.948;2023-07-20T03:07:51;24.64;75.73
64833;HTU21D;51290;45.060;38.948;2023-07-20T03:10:17;25.27;74.22
64833;HTU21D;51290;45.060;38.948;2023-07-20T03:12:43;25.75;72.51
64833;HTU21D;51290;45.060;38.948;2023-07-20T03:15:10;26.16;71.13
64833;HTU21D;51290;45.060;38.948;2023-07-20T03:17:36;26.50;70.23
64833;HTU21D;51290;45.060;38.948;2023-07-20T03:20:04;26.75;69.21
64833;HTU21D;51290;45.060;38.948;2023-07-20T03:22:34;27.00;68.52
64833;HTU21D;51290;45.060;38.948;2023-07-20T03:25:01;27.42;67.71
64833;HTU21D;51290;45.060;38.948;2023-07-20T03:27:27;27.93;66.74
64833;HTU21D;51290;45.060;38.948;2023-07-20T03:29:54;28.39;65.56
64833;HTU21D;51290;45.060;38.948;2023-07-20T03:32:20;28.83;64.59
64833;HTU21D;51290;45.060;38.948;2023-07-20T03:34:46;29.26;63.39
64833;HTU21D;51290;45.060;38.948;2023-07-20T03:37:13;29.60;62.27
64833;HTU21D;51290;45.060;38.948;2023-07-20T03:39:39;29.91;61.32
64833;HTU21D;51290;45.060;38.948;2023-07-20T03:42:06;30.19;60.60
64833;HTU21D;51290;45.060;38.948;2023-07-20T03:44:33;30.44;59.70
64833;HTU21D;51290;45.060;38.948;2023-07-20T03:46:59;30.62;59.12
64833;HTU21D;51290;45.060;38.948;2023-07-20T03:49:25;30.84;58.42
64833;HTU21D;51290;45.060;38.948;2023-07-20T03:51:51;31.05;57.85
64833;HTU21D;51290;45.060;38.948;2023-07-20T03:54:17;31.31;57.34
64833;HTU21D;51290;45.060;38.948;2023-07-20T03:56:44;31.52;56.52
64833;HTU21D;51290;45.060;38.948;2023-07-20T03:59:10;31.70;55.71
64833;HTU21D;51290;45.060;38.948;2023-07-20T04:01:36;31.88;54.71
64833;HTU21D;51290;45.060;38.948;2023-07-20T04:04:07;32.02;54.04
64833;HTU21D;51290;45.060;38.948;2023-07-20T04:06:34;32.14;53.54
64833;HTU21D;51290;45.060;38.948;2023-07-20T04:09:03;32.40;52.66
64833;HTU21D;51290;45.060;38.948;2023-07-20T04:11:29;32.57;51.99
64833;HTU21D;51290;45.060;38.948;2023-07-20T04:13:55;32.64;51.36
64833;HTU21D;51290;45.060;38.948;2023-07-20T04:16:22;32.64;50.66
64833;HTU21D;51290;45.060;38.948;2023-07-20T04:18:48;32.62;50.16
64833;HTU21D;51290;45.060;38.948;2023-07-20T04:21:14;32.72;49.85
64833;HTU21D;51290;45.060;38.948;2023-07-20T04:23:40;32.83;48.92
64833;HTU21D;51290;45.060;38.948;2023-07-20T04:26:06;32.73;48.47
64833;HTU21D;51290;45.060;38.948;2023-07-20T04:28:32;32.76;48.15
64833;HTU21D;51290;45.060;38.948;2023-07-20T04:31:10;32.98;46.93
64833;HTU21D;51290;45.060;38.948;2023-07-20T04:33:37;33.07;46.38
64833;HTU21D;51290;45.060;38.948;2023-07-20T04:36:04;33.02;45.67
64833;HTU21D;51290;45.060;38.948;2023-07-20T04:38:33;32.50;45.73
64833;HTU21D;51290;45.060;38.948;2023-07-20T04:41:11;31.66;47.00
64833;HTU21D;51290;45.060;38.948;2023-07-20T04:43:44;30.81;48.70
64833;HTU21D;51290;45.060;38.948;2023-07-20T04:46:12;30.08;49.46
64833;HTU21D;51290;45.060;38.948;2023-07-20T04:48:41;29.58;50.75
64833;HTU21D;51290;45.060;38.948;2023-07-20T04:51:09;29.24;51.43
64833;HTU21D;51290;45.060;38.948;2023-07-20T04:53:36;29.05;52.07
64833;HTU21D;51290;45.060;38.948;2023-07-20T04:56:02;28.85;51.88
64833;HTU21D;51290;45.060;38.948;2023-07-20T04:58:29;28.61;52.17
64833;HTU21D;51290;45.060;38.948;2023-07-20T05:00:55;28.43;52.73
64833;HTU21D;51290;45.060;38.948;2023-07-20T05:03:21;28.27;53.05
64833;HTU21D;51290;45.060;38.948;2023-07-20T05:05:48;28.16;53.12
64833;HTU21D;51290;45.060;38.948;2023-07-20T05:08:15;28.12;53.04
64833;HTU21D;51290;45.060;38.948;2023-07-20T05:10:45;28.06;52.58
64833;HTU21D;51290;45.060;38.948;2023-07-20T05:13:11;27.99;52.49
64833;HTU21D;51290;45.060;38.948;2023-07-20T05:15:37;27.95;52.42
64833;HTU21D;51290;45.060;38.948;2023-07-20T05:18:04;27.89;52.24
64833;HTU21D;51290;45.060;38.948;2023-07-20T05:20:31;27.81;52.04
64833;HTU21D;51290;45.060;38.948;2023-07-20T05:23:00;27.72;52.14
64833;HTU21D;51290;45.060;38.948;2023-07-20T05:25:27;27.64;52.17
64833;HTU21D;51290;45.060;38.948;2023-07-20T05:27:53;27.55;52.03
64833;HTU21D;51290;45.060;38.948;2023-07-20T05:30:21;27.47;52.04
64833;HTU21D;51290;45.060;38.948;2023-07-20T05:32:47;27.41;52.04
64833;HTU21D;51290;45.060;38.948;2023-07-20T05:35:19;27.38;52.08
64833;HTU21D;51290;45.060;38.948;2023-07-20T05:37:45;27.36;51.82
64833;HTU21D;51290;45.060;38.948;2023-07-20T05:40:12;27.30;51.68
64833;HTU21D;51290;45.060;38.948;2023-07-20T05:42:38;27.27;51.54
64833;HTU21D;51290;45.060;38.948;2023-07-20T05:45:05;27.22;51.39
64833;HTU21D;51290;45.060;38.948;2023-07-20T05:47:31;27.17;51.36
64833;HTU21D;51290;45.060;38.948;2023-07-20T05:49:57;27.11;51.14
64833;HTU21D;51290;45.060;38.948;2023-07-20T05:52:23;27.05;51.16
64833;HTU21D;51290;45.060;38.948;2023-07-20T05:54:49;27.02;51.11
64833;HTU21D;51290;45.060;38.948;2023-07-20T05:57:15;26.95;51.05
64833;HTU21D;51290;45.060;38.948;2023-07-20T05:59:41;26.83;51.17
64833;HTU21D;51290;45.060;38.948;2023-07-20T06:02:10;26.70;51.17
64833;HTU21D;51290;45.060;38.948;2023-07-20T06:04:38;26.63;51.24
64833;HTU21D;51290;45.060;38.948;2023-07-20T06:07:04;26.61;51.53
64833;HTU21D;51290;45.060;38.948;2023-07-20T06:09:31;26.63;51.56
64833;HTU21D;51290;45.060;38.948;2023-07-20T06:11:57;26.64;51.55
64833;HTU21D;51290;45.060;38.948;2023-07-20T06:14:23;26.69;51.17
64833;HTU21D;51290;45.060;38.948;2023-07-20T06:16:49;26.69;50.84
64833;HTU21D;51290;45.060;38.948;2023-07-20T06:19:15;26.67;50.73
64833;HTU21D;51290;45.060;38.948;2023-07-20T06:21:41;26.66;50.56
64833;HTU21D;51290;45.060;38.948;2023-07-20T06:24:08;26.65;50.43
64833;HTU21D;51290;45.060;38.948;2023-07-20T06:26:34;26.65;50.33
64833;HTU21D;51290;45.060;38.948;2023-07-20T06:29:07;26.64;50.17
64833;HTU21D;51290;45.060;38.948;2023-07-20T06:31:35;26.64;50.36
64833;HTU21D;51290;45.060;38.948;2023-07-20T06:34:01;26.66;50.43
64833;HTU21D;51290;45.060;38.948;2023-07-20T06:36:28;26.68;50.55
64833;HTU21D;51290;45.060;38.948;2023-07-20T06:38:55;26.71;50.36
64833;HTU21D;51290;45.060;38.948;2023-07-20T06:41:21;26.75;49.98
64833;HTU21D;51290;45.060;38.948;2023-07-20T06:43:48;26.77;49.89
64833;HTU21D;51290;45.060;38.948;2023-07-20T06:46:14;26.80;49.85
64833;HTU21D;51290;45.060;38.948;2023-07-20T06:48:40;26.85;49.98
64833;HTU21D;51290;45.060;38.948;2023-07-20T06:51:06;26.90;49.96
64833;HTU21D;51290;45.060;38.948;2023-07-20T06:53:32;26.89;49.85
64833;HTU21D;51290;45.060;38.948;2023-07-20T06:55:58;26.85;49.85
64833;HTU21D;51290;45.060;38.948;2023-07-20T06:58:25;26.87;49.89
64833;HTU21D;51290;45.060;38.948;2023-07-20T07:00:53;26.89;49.79
64833;HTU21D;51290;45.060;38.948;2023-07-20T07:03:20;26.91;49.85
64833;HTU21D;51290;45.060;38.948;2023-07-20T07:05:47;26.97;49.87
64833;HTU21D;51290;45.060;38.948;2023-07-20T07:08:13;27.05;49.74
64833;HTU21D;51290;45.060;38.948;2023-07-20T07:10:39;27.12;49.60
64833;HTU21D;51290;45.060;38.948;2023-07-20T07:13:05;27.20;49.58
64833;HTU21D;51290;45.060;38.948;2023-07-20T07:15:31;27.27;49.63
64833;HTU21D;51290;45.060;38.948;2023-07-20T07:17:57;27.39;49.43
64833;HTU21D;51290;45.060;38.948;2023-07-20T07:20:25;27.47;49.08
64833;HTU21D;51290;45.060;38.948;2023-07-20T07:22:51;27.45;48.80
64833;HTU21D;51290;45.060;38.948;2023-07-20T07:25:18;27.39;48.73
64833;HTU21D;51290;45.060;38.948;2023-07-20T07:27:44;27.35;48.48
64833;HTU21D;51290;45.060;38.948;2023-07-20T07:30:11;27.34;48.48
64833;HTU21D;51290;45.060;38.948;2023-07-20T07:32:37;27.39;48.46
64833;HTU21D;51290;45.060;38.948;2023-07-20T07:35:04;27.46;47.92
64833;HTU21D;51290;45.060;38.948;2023-07-20T07:37:30;27.51;47.10
64833;HTU21D;51290;45.060;38.948;2023-07-20T07:39:57;27.55;47.10
64833;HTU21D;51290;45.060;38.948;2023-07-20T07:42:23;27.59;47.14
64833;HTU21D;51290;45.060;38.948;2023-07-20T07:44:49;27.64;46.99
64833;HTU21D;51290;45.060;38.948;2023-07-20T07:47:15;27.65;46.70
64833;HTU21D;51290;45.060;38.948;2023-07-20T07:49:41;27.60;46.26
64833;HTU21D;51290;45.060;38.948;2023-07-20T07:52:10;27.56;46.54
64833;HTU21D;51290;45.060;38.948;2023-07-20T07:54:36;27.57;46.65
64833;HTU21D;51290;45.060;38.948;2023-07-20T07:57:02;27.60;46.60
64833;HTU21D;51290;45.060;38.948;2023-07-20T07:59:28;27.66;46.36
64833;HTU21D;51290;45.060;38.948;2023-07-20T08:01:56;27.71;46.26
64833;HTU21D;51290;45.060;38.948;2023-07-20T08:04:24;27.80;46.27
64833;HTU21D;51290;45.060;38.948;2023-07-20T08:06:50;27.84;45.97
64833;HTU21D;51290;45.060;38.948;2023-07-20T08:09:19;27.82;45.38
64833;HTU21D;51290;45.060;38.948;2023-07-20T08:11:45;27.72;45.21
64833;HTU21D;51290;45.060;38.948;2023-07-20T08:14:12;27.61;44.72
64833;HTU21D;51290;45.060;38.948;2023-07-20T08:16:38;27.51;44.90
64833;HTU21D;51290;45.060;38.948;2023-07-20T08:19:03;27.47;44.74
64833;HTU21D;51290;45.060;38.948;2023-07-20T08:21:29;27.45;44.80
64833;HTU21D;51290;45.060;38.948;2023-07-20T08:23:55;27.50;44.82
64833;HTU21D;51290;45.060;38.948;2023-07-20T08:26:23;27.53;44.64
64833;HTU21D;51290;45.060;38.948;2023-07-20T08:28:49;27.59;44.27
64833;HTU21D;51290;45.060;38.948;2023-07-20T08:31:15;27.63;43.85
64833;HTU21D;51290;45.060;38.948;2023-07-20T08:33:41;27.65;43.94
64833;HTU21D;51290;45.060;38.948;2023-07-20T08:36:09;27.69;43.93
64833;HTU21D;51290;45.060;38.948;2023-07-20T08:38:35;27.74;43.52
64833;HTU21D;51290;45.060;38.948;2023-07-20T08:41:01;27.81;42.89
64833;HTU21D;51290;45.060;38.948;2023-07-20T08:43:27;27.87;42.77
64833;HTU21D;51290;45.060;38.948;2023-07-20T08:45:55;27.90;42.25
64833;HTU21D;51290;45.060;38.948;2023-07-20T08:48:22;27.96;42.43
64833;HTU21D;51290;45.060;38.948;2023-07-20T08:50:51;28.06;42.13
64833;HTU21D;51290;45.060;38.948;2023-07-20T08:53:20;28.14;41.33
64833;HTU21D;51290;45.060;38.948;2023-07-20T08:55:49;28.20;40.24
64833;HTU21D;51290;45.060;38.948;2023-07-20T08:58:16;28.25;39.94
64833;HTU21D;51290;45.060;38.948;2023-07-20T09:00:43;28.27;39.60
64833;HTU21D;51290;45.060;38.948;2023-07-20T09:03:10;28.30;39.42
64833;HTU21D;51290;45.060;38.948;2023-07-20T09:05:37;28.39;39.36
64833;HTU21D;51290;45.060;38.948;2023-07-20T09:08:04;28.48;39.41
64833;HTU21D;51290;45.060;38.948;2023-07-20T09:10:31;28.60;39.26
64833;HTU21D;51290;45.060;38.948;2023-07-20T09:12:57;28.67;38.88
64833;HTU21D;51290;45.060;38.948;2023-07-20T09:15:23;28.68;38.36
64833;HTU21D;51290;45.060;38.948;2023-07-20T09:17:50;28.73;38.55
64833;HTU21D;51290;45.060;38.948;2023-07-20T09:20:17;28.80;38.62
64833;HTU21D;51290;45.060;38.948;2023-07-20T09:22:44;28.86;38.47
64833;HTU21D;51290;45.060;38.948;2023-07-20T09:25:15;28.82;38.19
64833;HTU21D;51290;45.060;38.948;2023-07-20T09:27:44;28.71;37.68
64833;HTU21D;51290;45.060;38.948;2023-07-20T09:30:10;28.67;37.75
64833;HTU21D;51290;45.060;38.948;2023-07-20T09:32:40;28.64;36.89
64833;HTU21D;51290;45.060;38.948;2023-07-20T09:35:12;28.63;37.25
64833;HTU21D;51290;45.060;38.948;2023-07-20T09:37:39;28.72;37.46
64833;HTU21D;51290;45.060;38.948;2023-07-20T09:40:07;28.77;37.37
64833;HTU21D;51290;45.060;38.948;2023-07-20T09:42:36;28.85;37.24
64833;HTU21D;51290;45.060;38.948;2023-07-20T09:45:02;28.89;37.15
64833;HTU21D;51290;45.060;38.948;2023-07-20T09:47:28;28.86;36.92
64833;HTU21D;51290;45.060;38.948;2023-07-20T09:49:58;28.82;36.98
64833;HTU21D;51290;45.060;38.948;2023-07-20T09:52:30;28.85;37.18
64833;HTU21D;51290;45.060;38.948;2023-07-20T09:54:56;28.82;37.07
64833;HTU21D;51290;45.060;38.948;2023-07-20T09:57:23;28.80;37.21
64833;HTU21D;51290;45.060;38.948;2023-07-20T09:59:49;28.89;37.02
64833;HTU21D;51290;45.060;38.948;2023-07-20T10:02:25;29.00;37.01
64833;HTU21D;51290;45.060;38.948;2023-07-20T10:04:57;28.99;36.76
64833;HTU21D;51290;45.060;38.948;2023-07-20T10:07:27;28.99;36.72
64833;HTU21D;51290;45.060;38.948;2023-07-20T10:09:56;29.00;36.66
64833;HTU21D;51290;45.060;38.948;2023-07-20T10:12:25;29.02;36.83
64833;HTU21D;51290;45.060;38.948;2023-07-20T10:17:49;29.07;35.66
64833;HTU21D;51290;45.060;38.948;2023-07-20T10:20:19;28.99;35.70
64833;HTU21D;51290;45.060;38.948;2023-07-20T10:22:48;28.91;35.86
64833;HTU21D;51290;45.060;38.948;2023-07-20T10:25:16;28.86;36.40
64833;HTU21D;51290;45.060;38.948;2023-07-20T10:27:43;28.87;36.75
64833;HTU21D;51290;45.060;38.948;2023-07-20T10:30:10;28.87;36.67
64833;HTU21D;51290;45.060;38.948;2023-07-20T10:32:36;28.93;36.72
64833;HTU21D;51290;45.060;38.948;2023-07-20T10:35:12;28.92;36.34
64833;HTU21D;51290;45.060;38.948;2023-07-20T10:37:50;28.89;36.17
64833;HTU21D;51290;45.060;38.948;2023-07-20T10:40:33;28.83;36.25
64833;HTU21D;51290;45.060;38.948;2023-07-20T10:43:01;28.85;36.11
64833;HTU21D;51290;45.060;38.948;2023-07-20T10:45:39;28.83;36.07
64833;HTU21D;51290;45.060;38.948;2023-07-20T10:48:06;28.79;35.93
64833;HTU21D;51290;45.060;38.948;2023-07-20T10:50:40;28.76;35.66
64833;HTU21D;51290;45.060;38.948;2023-07-20T10:53:14;28.70;35.79
64833;HTU21D;51290;45.060;38.948;2023-07-20T10:55:43;28.67;35.59
64833;HTU21D;51290;45.060;38.948;2023-07-20T10:58:16;28.64;35.67
64833;HTU21D;51290;45.060;38.948;2023-07-20T11:01:01;28.65;35.54
64833;HTU21D;51290;45.060;38.948;2023-07-20T11:03:30;28.63;35.34
64833;HTU21D;51290;45.060;38.948;2023-07-20T11:05:57;28.62;35.44
64833;HTU21D;51290;45.060;38.948;2023-07-20T11:11:26;28.61;35.75
64833;HTU21D;51290;45.060;38.948;2023-07-20T11:13:56;28.56;35.61
64833;HTU21D;51290;45.060;38.948;2023-07-20T11:16:43;28.46;35.31
64833;HTU21D;51290;45.060;38.948;2023-07-20T11:19:25;28.37;35.31
64833;HTU21D;51290;45.060;38.948;2023-07-20T11:21:54;28.30;35.35
64833;HTU21D;51290;45.060;38.948;2023-07-20T11:24:20;28.27;35.31
64833;HTU21D;51290;45.060;38.948;2023-07-20T11:26:54;28.21;34.94
64833;HTU21D;51290;45.060;38.948;2023-07-20T11:29:22;28.20;34.92
64833;HTU21D;51290;45.060;38.948;2023-07-20T11:31:49;28.16;34.88
64833;HTU21D;51290;45.060;38.948;2023-07-20T11:34:20;28.13;35.00
64833;HTU21D;51290;45.060;38.948;2023-07-20T11:36:51;28.12;35.00
64833;HTU21D;51290;45.060;38.948;2023-07-20T11:39:19;28.13;34.56
64833;HTU21D;51290;45.060;38.948;2023-07-20T11:41:57;28.14;34.86
64833;HTU21D;51290;45.060;38.948;2023-07-20T11:44:26;28.17;35.15
64833;HTU21D;51290;45.060;38.948;2023-07-20T11:47:07;28.19;35.52
64833;HTU21D;51290;45.060;38.948;2023-07-20T11:49:38;28.18;35.44
64833;HTU21D;51290;45.060;38.948;2023-07-20T11:52:06;28.20;35.29
64833;HTU21D;51290;45.060;38.948;2023-07-20T11:54:35;28.23;35.28
64833;HTU21D;51290;45.060;38.948;2023-07-20T11:57:03;28.23;35.16
64833;HTU21D;51290;45.060;38.948;2023-07-20T11:59:31;28.21;35.03
64833;HTU21D;51290;45.060;38.948;2023-07-20T12:02:02;28.19;34.39
64833;HTU21D;51290;45.060;38.948;2023-07-20T12:04:31;28.19;34.36
64833;HTU21D;51290;45.060;38.948;2023-07-20T12:06:57;28.19;33.39
64833;HTU21D;51290;45.060;38.948;2023-07-20T12:09:24;28.19;33.15
64833;HTU21D;51290;45.060;38.948;2023-07-20T12:11:50;28.18;33.44
64833;HTU21D;51290;45.060;38.948;2023-07-20T12:14:16;28.17;33.61
64833;HTU21D;51290;45.060;38.948;2023-07-20T12:16:43;28.20;33.67
64833;HTU21D;51290;45.060;38.948;2023-07-20T12:19:10;28.20;33.83
64833;HTU21D;51290;45.060;38.948;2023-07-20T12:21:40;28.18;34.05
64833;HTU21D;51290;45.060;38.948;2023-07-20T12:24:08;28.16;34.25
64833;HTU21D;51290;45.060;38.948;2023-07-20T12:26:39;28.15;34.23
64833;HTU21D;51290;45.060;38.948;2023-07-20T12:29:05;28.17;34.36
64833;HTU21D;51290;45.060;38.948;2023-07-20T12:31:34;28.16;33.59
64833;HTU21D;51290;45.060;38.948;2023-07-20T12:34:02;28.15;33.94
64833;HTU21D;51290;45.060;38.948;2023-07-20T12:36:28;28.15;34.05
64833;HTU21D;51290;45.060;38.948;2023-07-20T12:38:54;28.15;34.12
64833;HTU21D;51290;45.060;38.948;2023-07-20T12:41:20;28.14;34.21
64833;HTU21D;51290;45.060;38.948;2023-07-20T12:43:46;28.14;34.52
64833;HTU21D;51290;45.060;38.948;2023-07-20T12:46:13;28.16;34.77
64833;HTU21D;51290;45.060;38.948;2023-07-20T12:48:40;28.13;35.01
64833;HTU21D;51290;45.060;38.948;2023-07-20T12:51:11;28.12;35.35
64833;HTU21D;51290;45.060;38.948;2023-07-20T12:53:37;28.12;35.63
64833;HTU21D;51290;45.060;38.948;2023-07-20T12:56:04;28.12;35.95
64833;HTU21D;51290;45.060;38.948;2023-07-20T12:58:30;28.14;36.10
64833;HTU21D;51290;45.060;38.948;2023-07-20T13:00:56;28.18;36.23
64833;HTU21D;51290;45.060;38.948;2023-07-20T13:03:23;28.19;36.32
64833;HTU21D;51290;45.060;38.948;2023-07-20T13:05:49;28.21;36.47
64833;HTU21D;51290;45.060;38.948;2023-07-20T13:08:16;28.23;36.49
64833;HTU21D;51290;45.060;38.948;2023-07-20T13:10:43;28.26;36.53
64833;HTU21D;51290;45.060;38.948;2023-07-20T13:13:09;28.28;36.66
64833;HTU21D;51290;45.060;38.948;2023-07-20T13:15:43;28.29;36.81
64833;HTU21D;51290;45.060;38.948;2023-07-20T13:18:09;28.32;36.73
64833;HTU21D;51290;45.060;38.948;2023-07-20T13:20:36;28.34;36.63
64833;HTU21D;51290;45.060;38.948;2023-07-20T13:23:02;28.34;36.70
64833;HTU21D;51290;45.060;38.948;2023-07-20T13:25:30;28.35;36.59
64833;HTU21D;51290;45.060;38.948;2023-07-20T13:27:56;28.34;36.20
64833;HTU21D;51290;45.060;38.948;2023-07-20T13:30:22;28.33;36.23
64833;HTU21D;51290;45.060;38.948;2023-07-20T13:32:48;28.32;36.02
64833;HTU21D;51290;45.060;38.948;2023-07-20T13:35:14;28.30;36.04
64833;HTU21D;51290;45.060;38.948;2023-07-20T13:37:41;28.29;35.78
64833;HTU21D;51290;45.060;38.948;2023-07-20T13:40:07;28.27;35.60
64833;HTU21D;51290;45.060;38.948;2023-07-20T13:42:39;28.23;35.45
64833;HTU21D;51290;45.060;38.948;2023-07-20T13:45:06;28.20;35.64
64833;HTU21D;51290;45.060;38.948;2023-07-20T13:47:32;28.20;35.76
64833;HTU21D;51290;45.060;38.948;2023-07-20T13:49:59;28.17;35.95
64833;HTU21D;51290;45.060;38.948;2023-07-20T13:52:25;28.15;36.03
64833;HTU21D;51290;45.060;38.948;2023-07-20T13:54:51;28.13;36.14
64833;HTU21D;51290;45.060;38.948;2023-07-20T13:57:17;28.16;36.09
64833;HTU21D;51290;45.060;38.948;2023-07-20T13:59:44;28.19;35.97
64833;HTU21D;51290;45.060;38.948;2023-07-20T14:02:10;28.18;36.10
64833;HTU21D;51290;45.060;38.948;2023-07-20T14:04:36;28.18;36.16
64833;HTU21D;51290;45.060;38.948;2023-07-20T14:07:02;28.17;36.21
64833;HTU21D;51290;45.060;38.948;2023-07-20T14:09:29;28.18;36.30
64833;HTU21D;51290;45.060;38.948;2023-07-20T14:11:55;28.16;35.69
64833;HTU21D;51290;45.060;38.948;2023-07-20T14:14:21;28.17;35.71
64833;HTU21D;51290;45.060;38.948;2023-07-20T14:16:47;28.18;35.94
64833;HTU21D;51290;45.060;38.948;2023-07-20T14:19:13;28.19;36.11
64833;HTU21D;51290;45.060;38.948;2023-07-20T14:21:39;28.19;36.30
64833;HTU21D;51290;45.060;38.948;2023-07-20T14:24:05;28.19;36.21
64833;HTU21D;51290;45.060;38.948;2023-07-20T14:26:31;28.24;36.22
64833;HTU21D;51290;45.060;38.948;2023-07-20T14:28:57;28.26;36.20
64833;HTU21D;51290;45.060;38.948;2023-07-20T14:31:23;28.26;36.12
64833;HTU21D;51290;45.060;38.948;2023-07-20T14:33:49;28.26;36.02
64833;HTU21D;51290;45.060;38.948;2023-07-20T14:36:16;28.25;35.97
64833;HTU21D;51290;45.060;38.948;2023-07-20T14:38:42;28.25;35.91
64833;HTU21D;51290;45.060;38.948;2023-07-20T14:41:08;28.26;35.91
64833;HTU21D;51290;45.060;38.948;2023-07-20T14:43:34;28.25;35.93
64833;HTU21D;51290;45.060;38.948;2023-07-20T14:46:01;28.23;36.17
64833;HTU21D;51290;45.060;38.948;2023-07-20T14:48:27;28.19;36.25
64833;HTU21D;51290;45.060;38.948;2023-07-20T14:50:53;28.17;36.36
64833;HTU21D;51290;45.060;38.948;2023-07-20T14:53:19;28.16;36.54
64833;HTU21D;51290;45.060;38.948;2023-07-20T14:55:45;28.14;36.53
64833;HTU21D;51290;45.060;38.948;2023-07-20T14:58:11;28.13;36.50
64833;HTU21D;51290;45.060;38.948;2023-07-20T15:00:38;28.11;36.53
64833;HTU21D;51290;45.060;38.948;2023-07-20T15:03:04;28.09;36.66
64833;HTU21D;51290;45.060;38.948;2023-07-20T15:05:31;28.04;36.84
64833;HTU21D;51290;45.060;38.948;2023-07-20T15:07:57;27.99;36.74
64833;HTU21D;51290;45.060;38.948;2023-07-20T15:10:23;27.94;36.20
64833;HTU21D;51290;45.060;38.948;2023-07-20T15:12:49;27.91;36.17
64833;HTU21D;51290;45.060;38.948;2023-07-20T15:15:15;27.89;35.88
64833;HTU21D;51290;45.060;38.948;2023-07-20T15:17:44;27.86;35.74
64833;HTU21D;51290;45.060;38.948;2023-07-20T15:20:17;27.83;35.87